sensor_id;sensor_type;location;lat;lon;timestamp;pressure;altitude;pressure_sealevel;temperature;humidity
75219;BME280;63801;49.414;19.474;2023-03-03T00:01:54;93857.59;;;-2.17;62.90
75219;BME280;63801;49.414;19.474;2023-03-03T00:03:55;93855.22;;;-2.18;63.14
75219;BME280;63801;49.414;19.474;2023-03-03T00:05:55;93852.56;;;-2.23;62.71
75219;BME280;63801;49.414;19.474;2023-03-03T00:07:56;93857.06;;;-2.24;63.14
75219;BME280;63801;49.414;19.474;2023-03-03T00:09:56;93852.03;;;-2.26;63.04
75219;BME280;63801;49.414;19.474;2023-03-03T00:11:58;93849.41;;;-2.26;63.21
75219;BME280;63801;49.414;19.474;2023-03-03T00:13:59;93847.84;;;-2.27;62.95
75219;BME280;63801;49.414;19.474;2023-03-03T00:16:27;93843.63;;;-2.38;63.17
75219;BME280;63801;49.414;19.474;2023-03-03T00:18:36;93860.00;;;-2.31;63.16
75219;BME280;63801;49.414;19.474;2023-03-03T00:20:39;93851.53;;;-2.33;63.12
75219;BME280;63801;49.414;19.474;2023-03-03T00:22:40;93855.75;;;-2.37;63.06
75219;BME280;63801;49.414;19.474;2023-03-03T00:24:40;93854.44;;;-2.39;63.17
75219;BME280;63801;49.414;19.474;2023-03-03T00:26:44;93851.28;;;-2.41;63.26
75219;BME280;63801;49.414;19.474;2023-03-03T00:28:47;93853.38;;;-2.43;63.20
75219;BME280;63801;49.414;19.474;2023-03-03T00:30:49;93834.94;;;-2.58;63.12
75219;BME280;63801;49.414;19.474;2023-03-03T00:32:50;93857.59;;;-2.47;63.38
75219;BME280;63801;49.414;19.474;2023-03-03T00:34:54;93853.66;;;-2.50;63.25
75219;BME280;63801;49.414;19.474;2023-03-03T00:36:56;93853.66;;;-2.50;63.75
75219;BME280;63801;49.414;19.474;2023-03-03T00:39:16;93851.81;;;-2.54;64.13
75219;BME280;63801;49.414;19.474;2023-03-03T00:41:23;93856.28;;;-2.55;64.38
75219;BME280;63801;49.414;19.474;2023-03-03T00:43:25;93842.59;;;-2.62;64.16
75219;BME280;63801;49.414;19.474;2023-03-03T00:47:41;93846.53;;;-2.64;63.66
75219;BME280;63801;49.414;19.474;2023-03-03T00:49:42;93844.16;;;-2.66;64.13
75219;BME280;63801;49.414;19.474;2023-03-03T00:51:43;93841.78;;;-2.67;63.79
75219;BME280;63801;49.414;19.474;2023-03-03T00:53:43;93824.09;;;-2.82;63.80
75219;BME280;63801;49.414;19.474;2023-03-03T00:55:45;93842.31;;;-2.70;64.08
75219;BME280;63801;49.414;19.474;2023-03-03T00:57:45;93838.91;;;-2.71;63.95
75219;BME280;63801;49.414;19.474;2023-03-03T00:59:46;93829.91;;;-2.80;63.76
75219;BME280;63801;49.414;19.474;2023-03-03T01:01:46;93830.19;;;-2.72;64.08
75219;BME280;63801;49.414;19.474;2023-03-03T01:03:47;93834.66;;;-2.72;64.00
75219;BME280;63801;49.414;19.474;2023-03-03T01:05:48;93833.88;;;-2.73;63.92
75219;BME280;63801;49.414;19.474;2023-03-03T01:07:48;93830.72;;;-2.75;63.95
75219;BME280;63801;49.414;19.474;2023-03-03T01:09:49;93834.41;;;-2.76;64.02
75219;BME280;63801;49.414;19.474;2023-03-03T01:11:50;93835.19;;;-2.75;64.02
75219;BME280;63801;49.414;19.474;2023-03-03T01:13:51;93835.19;;;-2.75;64.09
75219;BME280;63801;49.414;19.474;2023-03-03T01:15:52;93837.28;;;-2.77;64.07
75219;BME280;63801;49.414;19.474;2023-03-03T01:17:54;93832.03;;;-2.77;64.31
75219;BME280;63801;49.414;19.474;2023-03-03T01:19:54;93829.91;;;-2.80;64.31
75219;BME280;63801;49.414;19.474;2023-03-03T01:21:54;93833.63;;;-2.76;64.21
75219;BME280;63801;49.414;19.474;2023-03-03T01:23:55;93829.13;;;-2.81;64.16
75219;BME280;63801;49.414;19.474;2023-03-03T01:25:55;93827.00;;;-2.79;64.38
75219;BME280;63801;49.414;19.474;2023-03-03T01:27:56;93814.63;;;-2.88;64.34
75219;BME280;63801;49.414;19.474;2023-03-03T01:29:57;93822.81;;;-2.80;64.28
75219;BME280;63801;49.414;19.474;2023-03-03T01:31:57;93823.84;;;-2.81;64.57
75219;BME280;63801;49.414;19.474;2023-03-03T01:33:57;93820.16;;;-2.85;65.08
75219;BME280;63801;49.414;19.474;2023-03-03T01:35:58;93823.06;;;-2.86;65.19
75219;BME280;63801;49.414;19.474;2023-03-03T01:37:58;93816.19;;;-2.87;64.98
75219;BME280;63801;49.414;19.474;2023-03-03T01:39:58;93806.72;;;-2.93;64.71
75219;BME280;63801;49.414;19.474;2023-03-03T01:41:59;93791.66;;;-3.03;64.71
75219;BME280;63801;49.414;19.474;2023-03-03T01:43:59;93804.34;;;-2.90;64.86
75219;BME280;63801;49.414;19.474;2023-03-03T01:48:03;93802.22;;;-2.93;64.66
75219;BME280;63801;49.414;19.474;2023-03-03T01:50:10;93800.91;;;-2.95;64.77
75219;BME280;63801;49.414;19.474;2023-03-03T01:52:26;93801.94;;;-2.96;64.61
75219;BME280;63801;49.414;19.474;2023-03-03T01:54:33;93791.94;;;-3.04;64.89
75219;BME280;63801;49.414;19.474;2023-03-03T01:56:36;93799.59;;;-2.98;64.93
75219;BME280;63801;49.414;19.474;2023-03-03T01:58:40;93799.84;;;-2.99;65.08
75219;BME280;63801;49.414;19.474;2023-03-03T02:00:43;93795.09;;;-3.02;64.97
75219;BME280;63801;49.414;19.474;2023-03-03T02:02:45;93797.75;;;-3.02;65.11
75219;BME280;63801;49.414;19.474;2023-03-03T02:04:46;93792.47;;;-3.02;64.92
75219;BME280;63801;49.414;19.474;2023-03-03T02:06:50;93789.84;;;-3.02;65.01
75219;BME280;63801;49.414;19.474;2023-03-03T02:09:02;93794.31;;;-2.98;64.78
75219;BME280;63801;49.414;19.474;2023-03-03T02:11:04;93784.81;;;-2.99;64.92
75219;BME280;63801;49.414;19.474;2023-03-03T02:13:05;93789.03;;;-2.98;64.93
75219;BME280;63801;49.414;19.474;2023-03-03T02:15:20;93789.53;;;-3.01;64.86
75219;BME280;63801;49.414;19.474;2023-03-03T02:17:21;93791.66;;;-3.03;65.01
75219;BME280;63801;49.414;19.474;2023-03-03T02:19:38;93784.00;;;-3.04;65.16
75219;BME280;63801;49.414;19.474;2023-03-03T02:21:41;93762.41;;;-3.22;65.26
75219;BME280;63801;49.414;19.474;2023-03-03T02:23:47;93776.09;;;-3.09;65.29
75219;BME280;63801;49.414;19.474;2023-03-03T02:27:56;93786.38;;;-3.13;65.19
75219;BME280;63801;49.414;19.474;2023-03-03T02:29:56;93780.31;;;-3.13;65.19
75219;BME280;63801;49.414;19.474;2023-03-03T02:31:57;93769.78;;;-3.24;65.61
75219;BME280;63801;49.414;19.474;2023-03-03T02:33:58;93784.28;;;-3.16;66.07
75219;BME280;63801;49.414;19.474;2023-03-03T02:35:58;93781.38;;;-3.20;65.80
75219;BME280;63801;49.414;19.474;2023-03-03T02:40:15;93773.47;;;-3.25;66.03
75219;BME280;63801;49.414;19.474;2023-03-03T02:42:26;93781.91;;;-3.28;66.14
75219;BME280;63801;49.414;19.474;2023-03-03T02:44:30;93761.06;;;-3.39;66.09
75219;BME280;63801;49.414;19.474;2023-03-03T02:46:36;93769.78;;;-3.34;66.03
75219;BME280;63801;49.414;19.474;2023-03-03T02:48:36;93754.97;;;-3.45;66.05
75219;BME280;63801;49.414;19.474;2023-03-03T02:50:37;93767.66;;;-3.42;65.96
75219;BME280;63801;49.414;19.474;2023-03-03T02:52:37;93759.22;;;-3.44;65.78
75219;BME280;63801;49.414;19.474;2023-03-03T02:54:38;93768.44;;;-3.46;65.95
75219;BME280;63801;49.414;19.474;2023-03-03T02:56:38;93767.91;;;-3.48;65.81
75219;BME280;63801;49.414;19.474;2023-03-03T02:58:38;93772.38;;;-3.49;65.84
75219;BME280;63801;49.414;19.474;2023-03-03T03:00:38;93766.59;;;-3.51;65.92
75219;BME280;63801;49.414;19.474;2023-03-03T03:02:39;93777.63;;;-3.49;66.15
75219;BME280;63801;49.414;19.474;2023-03-03T03:04:39;93783.69;;;-3.48;65.92
75219;BME280;63801;49.414;19.474;2023-03-03T03:06:40;93781.34;;;-3.50;66.03
75219;BME280;63801;49.414;19.474;2023-03-03T03:08:40;93778.72;;;-3.50;66.18
75219;BME280;63801;49.414;19.474;2023-03-03T03:10:41;93772.38;;;-3.49;66.12
75219;BME280;63801;49.414;19.474;2023-03-03T03:12:41;93765.78;;;-3.51;66.31
75219;BME280;63801;49.414;19.474;2023-03-03T03:14:41;93768.69;;;-3.48;66.24
75219;BME280;63801;49.414;19.474;2023-03-03T03:16:42;93767.09;;;-3.49;66.97
75219;BME280;63801;49.414;19.474;2023-03-03T03:18:42;93764.44;;;-3.54;66.92
75219;BME280;63801;49.414;19.474;2023-03-03T03:20:42;93761.84;;;-3.59;66.78
75219;BME280;63801;49.414;19.474;2023-03-03T03:22:43;93763.13;;;-3.62;66.25
75219;BME280;63801;49.414;19.474;2023-03-03T03:24:43;93764.97;;;-3.62;66.76
75219;BME280;63801;49.414;19.474;2023-03-03T03:26:43;93763.91;;;-3.61;66.67
75219;BME280;63801;49.414;19.474;2023-03-03T03:28:44;93763.41;;;-3.63;66.54
75219;BME280;63801;49.414;19.474;2023-03-03T03:30:44;93759.19;;;-3.64;66.61
75219;BME280;63801;49.414;19.474;2023-03-03T03:32:45;93758.13;;;-3.63;66.51
75219;BME280;63801;49.414;19.474;2023-03-03T03:34:45;93752.59;;;-3.62;66.96
75219;BME280;63801;49.414;19.474;2023-03-03T03:36:46;93757.84;;;-3.62;66.89
75219;BME280;63801;49.414;19.474;2023-03-03T03:38:46;93751.28;;;-3.64;67.06
75219;BME280;63801;49.414;19.474;2023-03-03T03:40:46;93749.16;;;-3.67;67.06
75219;BME280;63801;49.414;19.474;2023-03-03T03:42:47;93751.28;;;-3.69;66.85
75219;BME280;63801;49.414;19.474;2023-03-03T03:44:47;93747.28;;;-3.72;67.09
75219;BME280;63801;49.414;19.474;2023-03-03T03:46:50;93750.47;;;-3.75;66.93
75219;BME280;63801;49.414;19.474;2023-03-03T03:48:50;93742.03;;;-3.77;66.97
75219;BME280;63801;49.414;19.474;2023-03-03T03:50:50;93748.09;;;-3.81;66.86
75219;BME280;63801;49.414;19.474;2023-03-03T03:52:51;93751.75;;;-3.82;67.09
75219;BME280;63801;49.414;19.474;2023-03-03T03:54:51;93758.63;;;-3.81;67.57
75219;BME280;63801;49.414;19.474;2023-03-03T03:56:51;93763.88;;;-3.81;67.20
75219;BME280;63801;49.414;19.474;2023-03-03T03:58:53;93764.13;;;-3.83;67.19
75219;BME280;63801;49.414;19.474;2023-03-03T04:00:53;93760.19;;;-3.85;67.27
75219;BME280;63801;49.414;19.474;2023-03-03T04:02:54;93757.25;;;-3.89;67.35
75219;BME280;63801;49.414;19.474;2023-03-03T04:04:55;93758.34;;;-3.90;67.19
75219;BME280;63801;49.414;19.474;2023-03-03T04:06:55;93742.75;;;-4.01;67.21
75219;BME280;63801;49.414;19.474;2023-03-03T04:08:55;93755.41;;;-3.93;67.17
75219;BME280;63801;49.414;19.474;2023-03-03T04:10:56;93749.09;;;-3.92;67.29
75219;BME280;63801;49.414;19.474;2023-03-03T04:12:57;93752.00;;;-3.94;67.29
75219;BME280;63801;49.414;19.474;2023-03-03T04:14:57;93743.31;;;-3.94;67.37
75219;BME280;63801;49.414;19.474;2023-03-03T04:16:58;93750.16;;;-3.98;67.09
75219;BME280;63801;49.414;19.474;2023-03-03T04:18:58;93742.50;;;-4.00;67.12
75219;BME280;63801;49.414;19.474;2023-03-03T04:20:58;93739.84;;;-4.05;67.36
75219;BME280;63801;49.414;19.474;2023-03-03T04:22:58;93751.16;;;-4.04;67.14
75219;BME280;63801;49.414;19.474;2023-03-03T04:24:59;93749.81;;;-4.07;67.49
75219;BME280;63801;49.414;19.474;2023-03-03T04:27:04;93752.72;;;-4.09;67.21
75219;BME280;63801;49.414;19.474;2023-03-03T04:29:05;93735.06;;;-4.18;67.18
75219;BME280;63801;49.414;19.474;2023-03-03T04:31:05;93762.72;;;-4.11;67.36
75219;BME280;63801;49.414;19.474;2023-03-03T04:33:05;93753.25;;;-4.12;67.38
75219;BME280;63801;49.414;19.474;2023-03-03T04:35:06;93753.25;;;-4.12;67.64
75219;BME280;63801;49.414;19.474;2023-03-03T04:37:07;93760.06;;;-4.11;67.65
75219;BME280;63801;49.414;19.474;2023-03-03T04:39:07;93749.81;;;-4.12;67.54
75219;BME280;63801;49.414;19.474;2023-03-03T04:41:08;93753.50;;;-4.13;67.63
75219;BME280;63801;49.414;19.474;2023-03-03T04:43:09;93730.03;;;-4.25;67.57
75219;BME280;63801;49.414;19.474;2023-03-03T04:45:10;93734.78;;;-4.22;67.62
75219;BME280;63801;49.414;19.474;2023-03-03T04:47:10;93737.69;;;-4.18;67.65
75219;BME280;63801;49.414;19.474;2023-03-03T04:49:10;93742.72;;;-4.12;67.90
75219;BME280;63801;49.414;19.474;2023-03-03T04:51:11;93733.75;;;-4.11;67.33
75219;BME280;63801;49.414;19.474;2023-03-03T04:53:11;93731.13;;;-4.11;67.83
75219;BME280;63801;49.414;19.474;2023-03-03T04:55:12;93734.56;;;-4.10;67.60
75219;BME280;63801;49.414;19.474;2023-03-03T04:57:13;93734.56;;;-4.10;67.73
75219;BME280;63801;49.414;19.474;2023-03-03T04:59:13;93736.41;;;-4.11;67.41
75219;BME280;63801;49.414;19.474;2023-03-03T05:01:14;93734.84;;;-4.12;67.81
75219;BME280;63801;49.414;19.474;2023-03-03T05:03:14;93736.16;;;-4.09;68.06
75219;BME280;63801;49.414;19.474;2023-03-03T05:05:15;93737.72;;;-4.08;67.79
75219;BME280;63801;49.414;19.474;2023-03-03T05:07:15;93738.78;;;-4.09;68.07
75219;BME280;63801;49.414;19.474;2023-03-03T05:09:18;93740.09;;;-4.07;67.88
75219;BME280;63801;49.414;19.474;2023-03-03T05:11:18;93725.59;;;-4.14;67.85
75219;BME280;63801;49.414;19.474;2023-03-03T05:13:18;93741.94;;;-4.07;67.96
75219;BME280;63801;49.414;19.474;2023-03-03T05:15:19;93743.78;;;-4.07;67.91
75219;BME280;63801;49.414;19.474;2023-03-03T05:17:19;93742.47;;;-4.05;67.80
75219;BME280;63801;49.414;19.474;2023-03-03T05:19:19;93740.38;;;-4.03;68.09
75219;BME280;63801;49.414;19.474;2023-03-03T05:21:20;93741.94;;;-4.02;68.02
75219;BME280;63801;49.414;19.474;2023-03-03T05:23:21;93738.53;;;-4.02;67.78
75219;BME280;63801;49.414;19.474;2023-03-03T05:25:21;93739.59;;;-4.03;67.85
75219;BME280;63801;49.414;19.474;2023-03-03T05:27:22;93741.44;;;-4.04;68.10
75219;BME280;63801;49.414;19.474;2023-03-03T05:29:23;93726.41;;;-4.09;68.20
75219;BME280;63801;49.414;19.474;2023-03-03T05:31:23;93719.59;;;-4.04;68.25
75219;BME280;63801;49.414;19.474;2023-03-03T05:33:26;93747.03;;;-3.75;68.57
75219;BME280;63801;49.414;19.474;2023-03-03T05:35:26;93748.94;;;-3.55;68.83
75219;BME280;63801;49.414;19.474;2023-03-03T05:37:27;93763.16;;;-3.31;69.14
75219;BME280;63801;49.414;19.474;2023-03-03T05:39:28;93754.75;;;-3.03;69.12
75219;BME280;63801;49.414;19.474;2023-03-03T05:41:29;93710.44;;;-2.91;69.14
75219;BME280;63801;49.414;19.474;2023-03-03T05:43:29;93748.09;;;-2.35;69.43
75219;BME280;63801;49.414;19.474;2023-03-03T05:45:30;93754.28;;;-1.95;69.07
75219;BME280;63801;49.414;19.474;2023-03-03T05:47:30;93746.91;;;-1.54;68.52
75219;BME280;63801;49.414;19.474;2023-03-03T05:49:30;93742.19;;;-1.18;68.33
75219;BME280;63801;49.414;19.474;2023-03-03T05:51:31;93738.75;;;-0.80;67.73
75219;BME280;63801;49.414;19.474;2023-03-03T05:53:31;93744.94;;;-0.37;67.83
75219;BME280;63801;49.414;19.474;2023-03-03T05:55:31;93746.06;;;0.05;67.50
75219;BME280;63801;49.414;19.474;2023-03-03T05:57:32;93714.88;;;0.20;67.25
75219;BME280;63801;49.414;19.474;2023-03-03T05:59:32;93754.75;;;0.90;67.16
75219;BME280;63801;49.414;19.474;2023-03-03T06:01:33;93746.69;;;1.32;66.75
75219;BME280;63801;49.414;19.474;2023-03-03T06:03:33;93734.94;;;1.66;66.40
75219;BME280;63801;49.414;19.474;2023-03-03T06:05:34;93748.06;;;2.17;66.54
75219;BME280;63801;49.414;19.474;2023-03-03T06:07:34;93753.19;;;2.54;65.97
75219;BME280;63801;49.414;19.474;2023-03-03T06:09:35;93762.53;;;3.01;65.92
75219;BME280;63801;49.414;19.474;2023-03-03T06:11:36;93753.31;;;3.43;65.67
75219;BME280;63801;49.414;19.474;2023-03-03T06:13:36;93740.63;;;3.71;65.17
75219;BME280;63801;49.414;19.474;2023-03-03T06:15:37;93750.75;;;4.22;64.35
75219;BME280;63801;49.414;19.474;2023-03-03T06:17:37;93755.41;;;4.56;64.24
75219;BME280;63801;49.414;19.474;2023-03-03T06:19:38;93746.53;;;4.86;63.65
75219;BME280;63801;49.414;19.474;2023-03-03T06:21:40;93765.56;;;5.28;63.25
75219;BME280;63801;49.414;19.474;2023-03-03T06:23:41;93760.66;;;5.64;62.61
75219;BME280;63801;49.414;19.474;2023-03-03T06:25:41;93760.19;;;5.97;62.39
75219;BME280;63801;49.414;19.474;2023-03-03T06:27:41;93757.38;;;6.31;62.54
75219;BME280;63801;49.414;19.474;2023-03-03T06:29:42;93759.44;;;6.63;60.94
75219;BME280;63801;49.414;19.474;2023-03-03T06:31:42;93754.25;;;6.88;61.23
75219;BME280;63801;49.414;19.474;2023-03-03T06:33:43;93750.25;;;7.23;59.28
75219;BME280;63801;49.414;19.474;2023-03-03T06:35:44;93754.44;;;7.33;59.46
75219;BME280;63801;49.414;19.474;2023-03-03T06:37:48;93756.97;;;7.50;59.12
75219;BME280;63801;49.414;19.474;2023-03-03T06:39:49;93753.78;;;7.56;58.12
75219;BME280;63801;49.414;19.474;2023-03-03T06:41:51;93757.09;;;7.74;56.76
75219;BME280;63801;49.414;19.474;2023-03-03T06:43:51;93745.47;;;7.82;56.20
75219;BME280;63801;49.414;19.474;2023-03-03T06:45:52;93746.63;;;7.93;56.72
75219;BME280;63801;49.414;19.474;2023-03-03T06:47:52;93743.44;;;8.24;56.54
75219;BME280;63801;49.414;19.474;2023-03-03T06:49:52;93746.88;;;8.57;55.25
75219;BME280;63801;49.414;19.474;2023-03-03T06:51:53;93752.47;;;8.89;55.48
75219;BME280;63801;49.414;19.474;2023-03-03T06:53:55;93753.03;;;9.07;54.74
75219;BME280;63801;49.414;19.474;2023-03-03T06:55:56;93754.16;;;8.93;54.66
75219;BME280;63801;49.414;19.474;2023-03-03T06:57:58;93759.66;;;8.97;54.22
75219;BME280;63801;49.414;19.474;2023-03-03T07:02:20;93764.59;;;9.47;52.87
75219;BME280;63801;49.414;19.474;2023-03-03T07:04:25;93768.47;;;9.62;53.08
75219;BME280;63801;49.414;19.474;2023-03-03T07:06:27;93772.13;;;9.81;52.86
75219;BME280;63801;49.414;19.474;2023-03-03T07:08:30;93771.44;;;10.12;52.49
75219;BME280;63801;49.414;19.474;2023-03-03T07:10:31;93771.69;;;10.51;51.98
75219;BME280;63801;49.414;19.474;2023-03-03T07:12:34;93783.97;;;10.79;50.98
75219;BME280;63801;49.414;19.474;2023-03-03T07:14:43;93775.41;;;10.93;50.44
75219;BME280;63801;49.414;19.474;2023-03-03T07:16:44;93778.69;;;11.18;49.99
75219;BME280;63801;49.414;19.474;2023-03-03T07:20:47;93781.25;;;11.81;49.25
75219;BME280;63801;49.414;19.474;2023-03-03T07:22:48;93779.84;;;12.06;48.55
75219;BME280;63801;49.414;19.474;2023-03-03T07:24:54;93786.94;;;12.33;48.83
75219;BME280;63801;49.414;19.474;2023-03-03T07:27:09;93785.59;;;12.66;48.52
75219;BME280;63801;49.414;19.474;2023-03-03T07:29:23;93788.81;;;12.97;47.28
75219;BME280;63801;49.414;19.474;2023-03-03T07:31:29;93782.75;;;13.27;46.64
75219;BME280;63801;49.414;19.474;2023-03-03T07:33:34;93792.44;;;13.54;45.88
75219;BME280;63801;49.414;19.474;2023-03-03T07:35:43;93800.59;;;13.84;45.34
75219;BME280;63801;49.414;19.474;2023-03-03T07:37:44;93796.22;;;14.06;45.10
75219;BME280;63801;49.414;19.474;2023-03-03T07:39:45;93798.09;;;14.31;44.23
75219;BME280;63801;49.414;19.474;2023-03-03T07:41:46;93794.47;;;14.54;44.06
75219;BME280;63801;49.414;19.474;2023-03-03T07:44:04;93792.41;;;14.77;43.47
75219;BME280;63801;49.414;19.474;2023-03-03T07:46:16;93792.97;;;14.97;43.28
75219;BME280;63801;49.414;19.474;2023-03-03T07:48:30;93793.91;;;15.18;42.95
75219;BME280;63801;49.414;19.474;2023-03-03T07:50:33;93792.91;;;15.37;42.49
75219;BME280;63801;49.414;19.474;2023-03-03T07:52:42;93790.78;;;15.60;42.30
75219;BME280;63801;49.414;19.474;2023-03-03T07:54:44;93788.16;;;15.75;41.43
75219;BME280;63801;49.414;19.474;2023-03-03T07:56:46;93796.41;;;15.96;40.74
75219;BME280;63801;49.414;19.474;2023-03-03T07:58:46;93792.59;;;16.11;40.71
75219;BME280;63801;49.414;19.474;2023-03-03T08:03:18;93798.22;;;16.57;40.32
75219;BME280;63801;49.414;19.474;2023-03-03T08:07:34;93797.59;;;16.99;38.78
75219;BME280;63801;49.414;19.474;2023-03-03T08:09:42;93798.75;;;17.16;38.49
75219;BME280;63801;49.414;19.474;2023-03-03T08:11:52;93785.13;;;17.19;37.98
75219;BME280;63801;49.414;19.474;2023-03-03T08:13:54;93786.69;;;17.27;37.89
75219;BME280;63801;49.414;19.474;2023-03-03T08:16:20;93784.34;;;17.40;37.86
75219;BME280;63801;49.414;19.474;2023-03-03T08:18:27;93789.44;;;17.59;37.78
75219;BME280;63801;49.414;19.474;2023-03-03T08:20:42;93791.34;;;17.80;37.34
75219;BME280;63801;49.414;19.474;2023-03-03T08:22:44;93789.78;;;17.86;36.73
75219;BME280;63801;49.414;19.474;2023-03-03T08:24:44;93788.25;;;17.81;36.86
75219;BME280;63801;49.414;19.474;2023-03-03T08:26:45;93796.78;;;17.94;36.91
75219;BME280;63801;49.414;19.474;2023-03-03T08:28:45;93793.63;;;18.03;36.71
75219;BME280;63801;49.414;19.474;2023-03-03T08:30:46;93777.28;;;18.03;36.53
75219;BME280;63801;49.414;19.474;2023-03-03T08:32:47;93796.72;;;18.22;35.93
75219;BME280;63801;49.414;19.474;2023-03-03T08:34:47;93791.28;;;18.19;35.82
75219;BME280;63801;49.414;19.474;2023-03-03T08:36:47;93785.81;;;18.15;36.02
75219;BME280;63801;49.414;19.474;2023-03-03T08:38:48;93763.97;;;18.19;36.15
75219;BME280;63801;49.414;19.474;2023-03-03T08:40:49;93766.63;;;18.36;36.10
75219;BME280;63801;49.414;19.474;2023-03-03T08:42:49;93766.56;;;18.47;35.78
75219;BME280;63801;49.414;19.474;2023-03-03T08:44:50;93764.22;;;18.46;35.33
75219;BME280;63801;49.414;19.474;2023-03-03T08:46:50;93749.63;;;18.01;34.81
75219;BME280;63801;49.414;19.474;2023-03-03T08:48:50;93763.72;;;17.78;35.62
75219;BME280;63801;49.414;19.474;2023-03-03T08:50:51;93767.19;;;17.82;35.45
75219;BME280;63801;49.414;19.474;2023-03-03T08:52:52;93764.06;;;17.80;35.76
75219;BME280;63801;49.414;19.474;2023-03-03T08:54:52;93764.09;;;17.76;35.33
75219;BME280;63801;49.414;19.474;2023-03-03T08:56:53;93752.03;;;17.67;35.45
75219;BME280;63801;49.414;19.474;2023-03-03T08:58:53;93743.47;;;17.54;34.70
75219;BME280;63801;49.414;19.474;2023-03-03T09:00:53;93730.66;;;17.33;35.80
75219;BME280;63801;49.414;19.474;2023-03-03T09:02:54;93706.91;;;17.02;35.57
75219;BME280;63801;49.414;19.474;2023-03-03T09:04:54;93721.66;;;16.66;35.44
75219;BME280;63801;49.414;19.474;2023-03-03T09:06:55;93727.44;;;16.39;35.85
75219;BME280;63801;49.414;19.474;2023-03-03T09:08:55;93725.72;;;15.96;35.72
75219;BME280;63801;49.414;19.474;2023-03-03T09:10:56;93725.94;;;15.59;36.30
75219;BME280;63801;49.414;19.474;2023-03-03T09:12:57;93725.34;;;15.32;36.75
75219;BME280;63801;49.414;19.474;2023-03-03T09:15:11;93713.56;;;15.10;36.69
75219;BME280;63801;49.414;19.474;2023-03-03T09:17:33;93720.91;;;15.06;37.15
75219;BME280;63801;49.414;19.474;2023-03-03T09:19:35;93720.88;;;15.03;37.54
75219;BME280;63801;49.414;19.474;2023-03-03T09:21:36;93710.06;;;15.10;37.74
75219;BME280;63801;49.414;19.474;2023-03-03T09:23:39;93736.81;;;15.08;37.43
75219;BME280;63801;49.414;19.474;2023-03-03T09:25:40;93741.31;;;14.86;37.68
75219;BME280;63801;49.414;19.474;2023-03-03T09:27:40;93748.22;;;14.80;38.05
75219;BME280;63801;49.414;19.474;2023-03-03T09:29:41;93745.00;;;14.67;38.06
75219;BME280;63801;49.414;19.474;2023-03-03T09:31:44;93745.53;;;14.43;38.12
75219;BME280;63801;49.414;19.474;2023-03-03T09:33:46;93753.50;;;14.29;38.57
75219;BME280;63801;49.414;19.474;2023-03-03T09:35:53;93752.50;;;14.07;38.72
75219;BME280;63801;49.414;19.474;2023-03-03T09:37:57;93752.69;;;13.91;39.09
75219;BME280;63801;49.414;19.474;2023-03-03T09:39:57;93747.00;;;13.70;39.37
75219;BME280;63801;49.414;19.474;2023-03-03T10:02:29;93736.34;;;13.84;40.15
75219;BME280;63801;49.414;19.474;2023-03-03T10:04:43;93736.91;;;13.41;39.98
75219;BME280;63801;49.414;19.474;2023-03-03T10:11:40;93739.44;;;12.55;41.15
75219;BME280;63801;49.414;19.474;2023-03-03T10:25:38;93732.09;;;12.13;42.21
75219;BME280;63801;49.414;19.474;2023-03-03T10:30:00;93720.34;;;12.02;42.11
75219;BME280;63801;49.414;19.474;2023-03-03T10:37:17;93717.78;;;11.90;42.91
75219;BME280;63801;49.414;19.474;2023-03-03T10:46:19;93707.31;;;12.31;42.71
75219;BME280;63801;49.414;19.474;2023-03-03T10:50:57;93709.13;;;12.46;42.54
75219;BME280;63801;49.414;19.474;2023-03-03T10:57:45;93703.28;;;12.44;42.01
75219;BME280;63801;49.414;19.474;2023-03-03T11:02:14;93702.88;;;12.19;42.57
75219;BME280;63801;49.414;19.474;2023-03-03T11:04:28;93694.56;;;12.08;42.71
75219;BME280;63801;49.414;19.474;2023-03-03T11:11:33;93696.38;;;12.01;42.38
75219;BME280;63801;49.414;19.474;2023-03-03T11:13:44;93701.28;;;11.95;42.75
75219;BME280;63801;49.414;19.474;2023-03-03T11:18:14;93697.88;;;11.98;42.88
75219;BME280;63801;49.414;19.474;2023-03-03T11:22:46;93694.69;;;11.74;43.00
75219;BME280;63801;49.414;19.474;2023-03-03T11:29:29;93690.75;;;11.71;43.10
75219;BME280;63801;49.414;19.474;2023-03-03T11:31:37;93691.19;;;11.73;43.25
75219;BME280;63801;49.414;19.474;2023-03-03T11:33:52;93688.50;;;11.73;43.18
75219;BME280;63801;49.414;19.474;2023-03-03T11:38:53;93693.31;;;11.64;42.88
75219;BME280;63801;49.414;19.474;2023-03-03T11:41:19;93693.16;;;11.57;42.96
75219;BME280;63801;49.414;19.474;2023-03-03T11:43:37;93697.50;;;11.61;43.47
75219;BME280;63801;49.414;19.474;2023-03-03T11:45:41;93688.50;;;11.73;43.26
75219;BME280;63801;49.414;19.474;2023-03-03T11:48:01;93678.13;;;11.75;42.76
75219;BME280;63801;49.414;19.474;2023-03-03T11:50:22;93676.16;;;11.72;42.70
75219;BME280;63801;49.414;19.474;2023-03-03T11:52:31;93678.31;;;11.66;42.32
75219;BME280;63801;49.414;19.474;2023-03-03T11:54:43;93680.00;;;11.55;42.50
75219;BME280;63801;49.414;19.474;2023-03-03T11:56:46;93682.25;;;11.50;42.83
75219;BME280;63801;49.414;19.474;2023-03-03T11:59:24;93682.78;;;11.40;42.84
75219;BME280;63801;49.414;19.474;2023-03-03T12:01:41;93684.47;;;11.28;43.12
75219;BME280;63801;49.414;19.474;2023-03-03T12:03:57;93676.78;;;11.11;43.17
75219;BME280;63801;49.414;19.474;2023-03-03T12:06:26;93672.25;;;10.96;43.38
75219;BME280;63801;49.414;19.474;2023-03-03T12:15:32;93669.69;;;10.68;44.44
75219;BME280;63801;49.414;19.474;2023-03-03T12:18:03;93671.84;;;10.63;44.57
75219;BME280;63801;49.414;19.474;2023-03-03T12:22:37;93669.09;;;10.44;44.45
75219;BME280;63801;49.414;19.474;2023-03-03T12:43:28;93679.41;;;9.67;45.76
75219;BME280;63801;49.414;19.474;2023-03-03T12:50:24;93668.41;;;9.44;46.24
75219;BME280;63801;49.414;19.474;2023-03-03T12:52:45;93665.44;;;9.33;46.36
75219;BME280;63801;49.414;19.474;2023-03-03T12:54:49;93671.00;;;9.40;46.23